sensor_id;sensor_type;location;lat;lon;timestamp;pressure;altitude;pressure_sealevel;temperature;humidity
70103;BME280;57470;50.034;15.256;2023-04-30T00:01:07;99620.16;;;11.93;96.41
70103;BME280;57470;50.034;15.256;2023-04-30T00:03:32;99622.94;;;11.92;96.14
70103;BME280;57470;50.034;15.256;2023-04-30T00:05:57;99618.47;;;11.67;97.45
70103;BME280;57470;50.034;15.256;2023-04-30T00:08:23;99618.72;;;11.77;97.32
70103;BME280;57470;50.034;15.256;2023-04-30T00:10:48;99611.00;;;11.72;97.02
70103;BME280;57470;50.034;15.256;2023-04-30T00:13:14;99622.75;;;11.44;98.35
70103;BME280;57470;50.034;15.256;2023-04-30T00:15:39;99618.91;;;11.61;97.85
70103;BME280;57470;50.034;15.256;2023-04-30T00:18:05;99622.09;;;11.41;98.62
70103;BME280;57470;50.034;15.256;2023-04-30T00:20:31;99623.69;;;11.56;98.04
70103;BME280;57470;50.034;15.256;2023-04-30T00:22:58;99627.44;;;11.41;98.33
70103;BME280;57470;50.034;15.256;2023-04-30T00:25:23;99619.56;;;11.52;98.29
70103;BME280;57470;50.034;15.256;2023-04-30T00:27:49;99631.16;;;11.51;98.16
70103;BME280;57470;50.034;15.256;2023-04-30T00:30:14;99634.66;;;11.39;99.00
70103;BME280;57470;50.034;15.256;2023-04-30T00:32:40;99632.63;;;11.55;98.27
70103;BME280;57470;50.034;15.256;2023-04-30T00:35:05;99635.94;;;11.58;98.18
70103;BME280;57470;50.034;15.256;2023-04-30T00:37:31;99624.25;;;11.61;97.66
70103;BME280;57470;50.034;15.256;2023-04-30T00:39:56;99634.03;;;11.60;98.18
70103;BME280;57470;50.034;15.256;2023-04-30T00:42:22;99632.88;;;11.52;98.25
70103;BME280;57470;50.034;15.256;2023-04-30T00:44:47;99629.13;;;11.54;98.19
70103;BME280;57470;50.034;15.256;2023-04-30T00:47:12;99628.28;;;11.41;99.09
70103;BME280;57470;50.034;15.256;2023-04-30T00:49:38;99628.94;;;11.45;98.48
70103;BME280;57470;50.034;15.256;2023-04-30T00:52:03;99634.78;;;11.50;98.59
70103;BME280;57470;50.034;15.256;2023-04-30T00:54:29;99631.47;;;11.59;97.70
70103;BME280;57470;50.034;15.256;2023-04-30T00:56:55;99633.72;;;11.40;98.79
70103;BME280;57470;50.034;15.256;2023-04-30T00:59:20;99631.16;;;11.51;98.31
70103;BME280;57470;50.034;15.256;2023-04-30T01:01:46;99632.56;;;11.44;98.12
70103;BME280;57470;50.034;15.256;2023-04-30T01:04:11;99632.13;;;11.50;97.74
70103;BME280;57470;50.034;15.256;2023-04-30T01:06:36;99639.47;;;11.46;97.90
70103;BME280;57470;50.034;15.256;2023-04-30T01:09:02;99639.78;;;11.42;98.13
70103;BME280;57470;50.034;15.256;2023-04-30T01:11:44;99638.53;;;11.35;99.07
70103;BME280;57470;50.034;15.256;2023-04-30T01:17:02;99635.00;;;11.34;99.08
70103;BME280;57470;50.034;15.256;2023-04-30T01:19:44;99636.88;;;11.19;99.70
70103;BME280;57470;50.034;15.256;2023-04-30T01:22:54;99635.53;;;11.26;99.30
70103;BME280;57470;50.034;15.256;2023-04-30T01:28:05;99643.00;;;11.34;98.94
70103;BME280;57470;50.034;15.256;2023-04-30T01:30:33;99644.06;;;11.32;99.01
70103;BME280;57470;50.034;15.256;2023-04-30T01:33:00;99639.25;;;11.24;99.27
70103;BME280;57470;50.034;15.256;2023-04-30T01:46:28;99644.78;;;11.21;99.59
70103;BME280;57470;50.034;15.256;2023-04-30T01:51:40;99647.88;;;11.27;99.22
70103;BME280;57470;50.034;15.256;2023-04-30T01:54:50;99654.03;;;11.15;99.17
70103;BME280;57470;50.034;15.256;2023-04-30T01:57:40;99647.53;;;11.19;98.97
70103;BME280;57470;50.034;15.256;2023-04-30T02:00:07;99655.31;;;11.22;99.19
70103;BME280;57470;50.034;15.256;2023-04-30T02:02:35;99660.47;;;11.25;99.16
70103;BME280;57470;50.034;15.256;2023-04-30T02:05:01;99661.59;;;11.21;99.22
70103;BME280;57470;50.034;15.256;2023-04-30T02:07:41;99670.25;;;11.25;98.99
70103;BME280;57470;50.034;15.256;2023-04-30T02:10:10;99666.84;;;11.36;98.68
70103;BME280;57470;50.034;15.256;2023-04-30T02:12:40;99668.97;;;11.31;99.79
70103;BME280;57470;50.034;15.256;2023-04-30T02:15:07;99672.81;;;11.39;99.00
70103;BME280;57470;50.034;15.256;2023-04-30T02:17:34;99679.53;;;11.45;98.20
70103;BME280;57470;50.034;15.256;2023-04-30T02:20:02;99672.19;;;11.48;98.31
70103;BME280;57470;50.034;15.256;2023-04-30T02:22:30;99682.22;;;11.45;97.70
70103;BME280;57470;50.034;15.256;2023-04-30T02:24:56;99686.06;;;11.53;97.76
70103;BME280;57470;50.034;15.256;2023-04-30T02:27:24;99688.19;;;11.61;97.46
70103;BME280;57470;50.034;15.256;2023-04-30T02:29:52;99685.72;;;11.58;97.60
70103;BME280;57470;50.034;15.256;2023-04-30T02:32:19;99690.91;;;11.47;97.92
70103;BME280;57470;50.034;15.256;2023-04-30T02:34:47;99691.97;;;11.32;98.30
70103;BME280;57470;50.034;15.256;2023-04-30T02:37:14;99692.31;;;11.40;97.79
70103;BME280;57470;50.034;15.256;2023-04-30T02:39:41;99692.31;;;11.40;97.77
70103;BME280;57470;50.034;15.256;2023-04-30T02:42:08;99692.78;;;11.19;98.78
70103;BME280;57470;50.034;15.256;2023-04-30T02:44:35;99697.28;;;11.19;99.06
70103;BME280;57470;50.034;15.256;2023-04-30T02:47:02;99694.84;;;11.28;98.39
70103;BME280;57470;50.034;15.256;2023-04-30T02:49:29;99696.78;;;11.39;98.10
70103;BME280;57470;50.034;15.256;2023-04-30T02:51:56;99706.91;;;11.47;97.96
70103;BME280;57470;50.034;15.256;2023-04-30T02:54:23;99714.38;;;11.42;97.84
70103;BME280;57470;50.034;15.256;2023-04-30T02:56:51;99703.22;;;11.10;99.71
70103;BME280;57470;50.034;15.256;2023-04-30T02:59:19;99710.09;;;11.26;99.14
70103;BME280;57470;50.034;15.256;2023-04-30T03:01:45;99717.31;;;11.24;98.67
70103;BME280;57470;50.034;15.256;2023-04-30T03:04:10;99713.06;;;11.22;100.00
70103;BME280;57470;50.034;15.256;2023-04-30T03:06:35;99716.75;;;11.19;99.32
70103;BME280;57470;50.034;15.256;2023-04-30T03:09:01;99717.94;;;11.28;98.62
70103;BME280;57470;50.034;15.256;2023-04-30T03:11:26;99714.94;;;11.20;98.98
70103;BME280;57470;50.034;15.256;2023-04-30T03:13:52;99724.97;;;11.16;98.98
70103;BME280;57470;50.034;15.256;2023-04-30T03:16:19;99719.66;;;11.16;99.42
70103;BME280;57470;50.034;15.256;2023-04-30T03:18:45;99718.75;;;11.03;100.00
70103;BME280;57470;50.034;15.256;2023-04-30T03:21:11;99727.25;;;10.96;100.00
70103;BME280;57470;50.034;15.256;2023-04-30T03:23:36;99721.81;;;10.97;100.00
70103;BME280;57470;50.034;15.256;2023-04-30T03:26:02;99720.66;;;11.01;100.00
70103;BME280;57470;50.034;15.256;2023-04-30T03:28:27;99727.41;;;11.07;100.00
70103;BME280;57470;50.034;15.256;2023-04-30T03:30:52;99728.25;;;11.07;99.31
70103;BME280;57470;50.034;15.256;2023-04-30T03:33:18;99723.56;;;11.11;99.35
70103;BME280;57470;50.034;15.256;2023-04-30T03:35:43;99739.19;;;11.03;99.90
70103;BME280;57470;50.034;15.256;2023-04-30T03:38:09;99739.00;;;11.06;99.55
70103;BME280;57470;50.034;15.256;2023-04-30T03:40:34;99740.13;;;11.02;99.67
70103;BME280;57470;50.034;15.256;2023-04-30T03:43:00;99746.81;;;10.95;99.92
70103;BME280;57470;50.034;15.256;2023-04-30T03:45:25;99747.00;;;10.91;100.00
70103;BME280;57470;50.034;15.256;2023-04-30T03:47:50;99744.72;;;11.00;100.00
70103;BME280;57470;50.034;15.256;2023-04-30T03:50:17;99746.88;;;11.07;99.67
70103;BME280;57470;50.034;15.256;2023-04-30T03:52:43;99751.84;;;10.99;99.70
70103;BME280;57470;50.034;15.256;2023-04-30T03:55:09;99752.41;;;11.04;99.30
70103;BME280;57470;50.034;15.256;2023-04-30T03:57:35;99758.56;;;11.05;99.52
70103;BME280;57470;50.034;15.256;2023-04-30T04:00:00;99754.91;;;10.93;99.90
70103;BME280;57470;50.034;15.256;2023-04-30T04:02:26;99757.63;;;10.79;100.00
70103;BME280;57470;50.034;15.256;2023-04-30T04:04:51;99758.56;;;11.05;99.60
70103;BME280;57470;50.034;15.256;2023-04-30T04:07:17;99752.75;;;10.85;99.60
70103;BME280;57470;50.034;15.256;2023-04-30T04:09:43;99758.94;;;10.86;100.00
70103;BME280;57470;50.034;15.256;2023-04-30T04:12:08;99766.88;;;11.00;99.75
70103;BME280;57470;50.034;15.256;2023-04-30T04:14:34;99767.75;;;11.13;99.40
70103;BME280;57470;50.034;15.256;2023-04-30T04:17:00;99768.47;;;11.03;99.03
70103;BME280;57470;50.034;15.256;2023-04-30T04:19:26;99778.47;;;10.99;98.93
70103;BME280;57470;50.034;15.256;2023-04-30T04:21:51;99775.34;;;10.93;99.37
70103;BME280;57470;50.034;15.256;2023-04-30T04:24:17;99774.09;;;10.98;99.29
70103;BME280;57470;50.034;15.256;2023-04-30T04:26:42;99774.88;;;11.00;98.99
70103;BME280;57470;50.034;15.256;2023-04-30T04:29:09;99777.47;;;11.14;98.72
70103;BME280;57470;50.034;15.256;2023-04-30T04:31:35;99788.88;;;11.16;98.38
70103;BME280;57470;50.034;15.256;2023-04-30T04:34:02;99780.97;;;11.15;98.34
70103;BME280;57470;50.034;15.256;2023-04-30T04:36:29;99779.06;;;11.17;98.36
70103;BME280;57470;50.034;15.256;2023-04-30T04:38:58;99789.91;;;11.14;98.47
70103;BME280;57470;50.034;15.256;2023-04-30T04:41:28;99791.53;;;11.16;98.33
70103;BME280;57470;50.034;15.256;2023-04-30T04:43:53;99788.44;;;11.22;98.24
70103;BME280;57470;50.034;15.256;2023-04-30T04:46:19;99790.59;;;11.17;98.68
70103;BME280;57470;50.034;15.256;2023-04-30T04:48:45;99789.47;;;11.34;97.68
70103;BME280;57470;50.034;15.256;2023-04-30T04:51:11;99799.34;;;11.05;98.41
70103;BME280;57470;50.034;15.256;2023-04-30T04:53:37;99793.03;;;11.20;98.65
70103;BME280;57470;50.034;15.256;2023-04-30T04:56:03;99805.38;;;11.21;98.14
70103;BME280;57470;50.034;15.256;2023-04-30T04:58:28;99799.69;;;11.40;97.71
70103;BME280;57470;50.034;15.256;2023-04-30T05:00:54;99808.47;;;11.28;97.49
70103;BME280;57470;50.034;15.256;2023-04-30T05:03:19;99812.63;;;11.59;97.17
70103;BME280;57470;50.034;15.256;2023-04-30T05:05:45;99807.63;;;11.67;96.52
70103;BME280;57470;50.034;15.256;2023-04-30T05:08:11;99805.50;;;11.72;96.22
70103;BME280;57470;50.034;15.256;2023-04-30T05:10:36;99809.09;;;11.85;95.58
70103;BME280;57470;50.034;15.256;2023-04-30T05:13:01;99819.34;;;11.64;95.20
70103;BME280;57470;50.034;15.256;2023-04-30T05:15:27;99821.88;;;11.80;95.72
70103;BME280;57470;50.034;15.256;2023-04-30T05:17:52;99822.94;;;11.90;95.23
70103;BME280;57470;50.034;15.256;2023-04-30T05:20:18;99824.03;;;12.13;95.17
70103;BME280;57470;50.034;15.256;2023-04-30T05:22:43;99819.75;;;12.11;94.70
70103;BME280;57470;50.034;15.256;2023-04-30T05:25:08;99827.44;;;12.28;93.86
70103;BME280;57470;50.034;15.256;2023-04-30T05:27:34;99824.69;;;12.17;93.75
70103;BME280;57470;50.034;15.256;2023-04-30T05:30:00;99825.88;;;12.25;92.70
70103;BME280;57470;50.034;15.256;2023-04-30T05:32:25;99830.84;;;12.55;92.50
70103;BME280;57470;50.034;15.256;2023-04-30T05:34:52;99831.06;;;12.39;92.44
70103;BME280;57470;50.034;15.256;2023-04-30T05:37:17;99833.41;;;12.19;92.39
70103;BME280;57470;50.034;15.256;2023-04-30T05:39:44;99835.25;;;12.31;91.29
70103;BME280;57470;50.034;15.256;2023-04-30T05:42:09;99833.41;;;12.19;91.21
70103;BME280;57470;50.034;15.256;2023-04-30T05:44:35;99835.44;;;12.40;91.45
70103;BME280;57470;50.034;15.256;2023-04-30T05:47:00;99835.13;;;12.07;90.21
70103;BME280;57470;50.034;15.256;2023-04-30T05:49:26;99841.41;;;12.19;90.74
70103;BME280;57470;50.034;15.256;2023-04-30T05:51:51;99840.53;;;11.93;90.81
70103;BME280;57470;50.034;15.256;2023-04-30T05:54:16;99846.66;;;12.20;90.46
70103;BME280;57470;50.034;15.256;2023-04-30T05:56:42;99841.66;;;12.16;90.16
70103;BME280;57470;50.034;15.256;2023-04-30T05:59:07;99838.44;;;12.11;90.71
70103;BME280;57470;50.034;15.256;2023-04-30T06:01:33;99847.31;;;12.24;89.74
70103;BME280;57470;50.034;15.256;2023-04-30T06:03:58;99845.78;;;12.20;89.42
70103;BME280;57470;50.034;15.256;2023-04-30T06:06:25;99853.66;;;12.09;90.14
70103;BME280;57470;50.034;15.256;2023-04-30T06:08:52;99851.47;;;12.40;89.78
70103;BME280;57470;50.034;15.256;2023-04-30T06:11:17;99849.66;;;12.41;90.27
70103;BME280;57470;50.034;15.256;2023-04-30T06:13:42;99848.13;;;11.99;89.83
70103;BME280;57470;50.034;15.256;2023-04-30T06:16:08;99855.19;;;12.51;89.98
70103;BME280;57470;50.034;15.256;2023-04-30T06:18:34;99851.56;;;12.39;89.08
70103;BME280;57470;50.034;15.256;2023-04-30T06:20:59;99855.59;;;12.45;88.69
70103;BME280;57470;50.034;15.256;2023-04-30T06:23:24;99855.59;;;12.57;88.98
70103;BME280;57470;50.034;15.256;2023-04-30T06:25:50;99855.75;;;13.05;87.85
70103;BME280;57470;50.034;15.256;2023-04-30T06:28:15;99853.38;;;13.00;85.56
70103;BME280;57470;50.034;15.256;2023-04-30T06:30:41;99853.50;;;13.35;84.24
70103;BME280;57470;50.034;15.256;2023-04-30T06:33:06;99852.06;;;13.19;84.03
70103;BME280;57470;50.034;15.256;2023-04-30T06:35:32;99854.06;;;13.28;84.62
70103;BME280;57470;50.034;15.256;2023-04-30T06:37:57;99853.22;;;13.51;84.60
70103;BME280;57470;50.034;15.256;2023-04-30T06:40:22;99854.41;;;13.71;82.50
70103;BME280;57470;50.034;15.256;2023-04-30T06:42:48;99858.75;;;13.96;82.13
70103;BME280;57470;50.034;15.256;2023-04-30T06:45:13;99862.81;;;13.53;81.28
70103;BME280;57470;50.034;15.256;2023-04-30T06:47:40;99856.94;;;14.07;81.85
70103;BME280;57470;50.034;15.256;2023-04-30T06:50:07;99857.56;;;14.57;80.93
70103;BME280;57470;50.034;15.256;2023-04-30T06:52:33;99850.88;;;14.40;79.82
70103;BME280;57470;50.034;15.256;2023-04-30T06:54:58;99848.66;;;14.79;79.18
70103;BME280;57470;50.034;15.256;2023-04-30T06:57:25;99845.75;;;14.59;78.38
70103;BME280;57470;50.034;15.256;2023-04-30T06:59:51;99846.13;;;14.55;77.88
70103;BME280;57470;50.034;15.256;2023-04-30T07:02:17;99847.22;;;14.75;79.01
70103;BME280;57470;50.034;15.256;2023-04-30T07:04:42;99850.03;;;14.84;79.25
70103;BME280;57470;50.034;15.256;2023-04-30T07:07:08;99849.50;;;15.01;76.65
70103;BME280;57470;50.034;15.256;2023-04-30T07:09:33;99843.84;;;15.38;76.07
70103;BME280;57470;50.034;15.256;2023-04-30T07:11:59;99843.34;;;15.33;75.98
70103;BME280;57470;50.034;15.256;2023-04-30T07:14:25;99852.63;;;15.29;76.11
70103;BME280;57470;50.034;15.256;2023-04-30T07:16:50;99847.56;;;15.90;74.83
70103;BME280;57470;50.034;15.256;2023-04-30T07:19:15;99842.19;;;15.58;73.42
70103;BME280;57470;50.034;15.256;2023-04-30T07:21:41;99839.09;;;15.73;74.40
70103;BME280;57470;50.034;15.256;2023-04-30T07:24:06;99843.50;;;16.16;74.53
70103;BME280;57470;50.034;15.256;2023-04-30T07:26:32;99842.75;;;15.29;76.31
70103;BME280;57470;50.034;15.256;2023-04-30T07:28:57;99849.63;;;15.65;73.26
70103;BME280;57470;50.034;15.256;2023-04-30T07:31:23;99846.25;;;15.41;74.89
70103;BME280;57470;50.034;15.256;2023-04-30T07:33:50;99847.03;;;15.96;73.73
70103;BME280;57470;50.034;15.256;2023-04-30T07:36:16;99853.31;;;16.06;73.96
70103;BME280;57470;50.034;15.256;2023-04-30T07:38:42;99847.88;;;15.96;72.33
70103;BME280;57470;50.034;15.256;2023-04-30T07:41:07;99846.50;;;16.02;70.71
70103;BME280;57470;50.034;15.256;2023-04-30T07:43:34;99843.09;;;15.79;71.37
70103;BME280;57470;50.034;15.256;2023-04-30T07:46:00;99844.63;;;15.50;72.15
70103;BME280;57470;50.034;15.256;2023-04-30T07:48:26;99845.94;;;16.19;74.16
70103;BME280;57470;50.034;15.256;2023-04-30T07:50:52;99847.09;;;16.26;74.08
70103;BME280;57470;50.034;15.256;2023-04-30T07:53:17;99849.44;;;16.40;72.08
70103;BME280;57470;50.034;15.256;2023-04-30T07:55:42;99853.88;;;16.30;70.58
70103;BME280;57470;50.034;15.256;2023-04-30T07:58:08;99850.75;;;16.25;70.65
70103;BME280;57470;50.034;15.256;2023-04-30T08:00:33;99856.91;;;16.37;71.00
70103;BME280;57470;50.034;15.256;2023-04-30T08:02:58;99854.44;;;16.24;70.49
70103;BME280;57470;50.034;15.256;2023-04-30T08:05:25;99858.13;;;15.70;71.52
70103;BME280;57470;50.034;15.256;2023-04-30T08:07:51;99860.38;;;16.07;71.08
70103;BME280;57470;50.034;15.256;2023-04-30T08:10:16;99857.72;;;16.28;70.72
70103;BME280;57470;50.034;15.256;2023-04-30T08:12:41;99855.88;;;16.28;65.83
70103;BME280;57470;50.034;15.256;2023-04-30T08:15:07;99860.84;;;16.84;69.11
70103;BME280;57470;50.034;15.256;2023-04-30T08:17:33;99860.47;;;16.47;68.57
70103;BME280;57470;50.034;15.256;2023-04-30T08:20:00;99866.44;;;16.71;69.39
70103;BME280;57470;50.034;15.256;2023-04-30T08:22:25;99866.97;;;16.96;68.22
70103;BME280;57470;50.034;15.256;2023-04-30T08:24:51;99866.56;;;16.49;66.37
70103;BME280;57470;50.034;15.256;2023-04-30T08:27:16;99863.31;;;16.25;64.61
70103;BME280;57470;50.034;15.256;2023-04-30T08:29:42;99861.50;;;16.76;65.10
70103;BME280;57470;50.034;15.256;2023-04-30T08:32:07;99861.78;;;16.73;66.42
70103;BME280;57470;50.034;15.256;2023-04-30T08:34:33;99859.88;;;16.64;67.19
70103;BME280;57470;50.034;15.256;2023-04-30T08:36:59;99863.06;;;16.07;65.35
70103;BME280;57470;50.034;15.256;2023-04-30T08:39:25;99865.50;;;16.10;65.78
70103;BME280;57470;50.034;15.256;2023-04-30T08:41:54;99867.44;;;16.49;68.32
70103;BME280;57470;50.034;15.256;2023-04-30T08:44:26;99857.81;;;16.68;66.83
70103;BME280;57470;50.034;15.256;2023-04-30T08:46:55;99869.13;;;16.71;66.99
70103;BME280;57470;50.034;15.256;2023-04-30T08:49:24;99869.69;;;16.75;64.11
70103;BME280;57470;50.034;15.256;2023-04-30T08:51:52;99865.94;;;16.36;66.06
70103;BME280;57470;50.034;15.256;2023-04-30T08:54:18;99871.94;;;16.49;66.94
70103;BME280;57470;50.034;15.256;2023-04-30T08:56:46;99864.31;;;16.75;65.90
70103;BME280;57470;50.034;15.256;2023-04-30T08:59:12;99870.78;;;16.21;65.47
70103;BME280;57470;50.034;15.256;2023-04-30T09:01:41;99870.34;;;15.63;65.44
70103;BME280;57470;50.034;15.256;2023-04-30T09:04:12;99872.56;;;15.47;66.70
70103;BME280;57470;50.034;15.256;2023-04-30T09:06:38;99869.81;;;15.69;66.20
70103;BME280;57470;50.034;15.256;2023-04-30T09:09:13;99875.69;;;16.16;63.39
70103;BME280;57470;50.034;15.256;2023-04-30T09:11:40;99874.69;;;16.38;63.24
70103;BME280;57470;50.034;15.256;2023-04-30T09:14:06;99877.44;;;16.47;63.90
70103;BME280;57470;50.034;15.256;2023-04-30T09:16:47;99872.41;;;16.12;62.70
70103;BME280;57470;50.034;15.256;2023-04-30T09:19:28;99873.91;;;16.47;62.41
70103;BME280;57470;50.034;15.256;2023-04-30T09:21:55;99883.75;;;16.37;62.68
70103;BME280;57470;50.034;15.256;2023-04-30T09:24:21;99871.91;;;15.98;64.40
70103;BME280;57470;50.034;15.256;2023-04-30T09:26:46;99875.44;;;16.19;63.54
70103;BME280;57470;50.034;15.256;2023-04-30T09:29:12;99873.19;;;16.03;61.69
70103;BME280;57470;50.034;15.256;2023-04-30T09:31:40;99875.94;;;15.60;61.23
70103;BME280;57470;50.034;15.256;2023-04-30T09:34:06;99882.41;;;16.10;62.94
70103;BME280;57470;50.034;15.256;2023-04-30T09:36:32;99871.72;;;15.79;61.92
70103;BME280;57470;50.034;15.256;2023-04-30T09:39:08;99876.41;;;15.97;61.37
70103;BME280;57470;50.034;15.256;2023-04-30T09:41:36;99880.72;;;15.89;62.96
70103;BME280;57470;50.034;15.256;2023-04-30T09:44:01;99880.28;;;16.25;63.17
70103;BME280;57470;50.034;15.256;2023-04-30T09:46:32;99884.19;;;16.21;61.70
70103;BME280;57470;50.034;15.256;2023-04-30T09:49:03;99885.06;;;16.01;60.61
70103;BME280;57470;50.034;15.256;2023-04-30T09:51:29;99888.91;;;16.29;61.70
70103;BME280;57470;50.034;15.256;2023-04-30T09:53:55;99889.38;;;15.92;57.84
70103;BME280;57470;50.034;15.256;2023-04-30T09:56:22;99883.28;;;16.11;56.99
70103;BME280;57470;50.034;15.256;2023-04-30T09:58:55;99879.69;;;16.42;57.42
70103;BME280;57470;50.034;15.256;2023-04-30T10:01:22;99882.41;;;16.10;56.90
70103;BME280;57470;50.034;15.256;2023-04-30T10:03:50;99874.31;;;16.42;58.46
70103;BME280;57470;50.034;15.256;2023-04-30T10:06:17;99873.00;;;15.95;58.75
70103;BME280;57470;50.034;15.256;2023-04-30T10:08:47;99875.53;;;16.59;58.66
70103;BME280;57470;50.034;15.256;2023-04-30T10:11:17;99873.06;;;16.46;57.37
70103;BME280;57470;50.034;15.256;2023-04-30T10:13:53;99877.84;;;16.43;57.41
70103;BME280;57470;50.034;15.256;2023-04-30T10:18:58;99871.34;;;16.66;55.98
70103;BME280;57470;50.034;15.256;2023-04-30T10:21:27;99869.31;;;16.79;58.37
70103;BME280;57470;50.034;15.256;2023-04-30T10:23:54;99867.97;;;16.43;57.64
70103;BME280;57470;50.034;15.256;2023-04-30T10:26:19;99864.91;;;16.27;58.94
70103;BME280;57470;50.034;15.256;2023-04-30T10:28:47;99871.28;;;16.57;58.66
70103;BME280;57470;50.034;15.256;2023-04-30T10:31:15;99861.72;;;16.94;59.01
70103;BME280;57470;50.034;15.256;2023-04-30T10:36:25;99863.69;;;16.92;56.19
70103;BME280;57470;50.034;15.256;2023-04-30T10:38:55;99857.94;;;16.97;57.09
70103;BME280;57470;50.034;15.256;2023-04-30T10:41:22;99851.25;;;17.50;57.24
70103;BME280;57470;50.034;15.256;2023-04-30T10:43:50;99847.41;;;17.34;58.27
70103;BME280;57470;50.034;15.256;2023-04-30T10:46:22;99852.28;;;17.09;55.31
70103;BME280;57470;50.034;15.256;2023-04-30T10:48:48;99849.91;;;17.06;54.45
70103;BME280;57470;50.034;15.256;2023-04-30T10:51:14;99849.97;;;16.85;53.12
70103;BME280;57470;50.034;15.256;2023-04-30T10:53:41;99844.72;;;16.84;54.19
70103;BME280;57470;50.034;15.256;2023-04-30T10:56:06;99849.09;;;16.55;54.84
70103;BME280;57470;50.034;15.256;2023-04-30T10:58:38;99856.59;;;16.81;55.39
70103;BME280;57470;50.034;15.256;2023-04-30T11:01:08;99856.66;;;17.01;55.88
70103;BME280;57470;50.034;15.256;2023-04-30T11:03:35;99855.00;;;17.19;55.85
70103;BME280;57470;50.034;15.256;2023-04-30T11:06:10;99859.75;;;16.96;55.62
70103;BME280;57470;50.034;15.256;2023-04-30T11:08:38;99851.78;;;17.25;56.13
70103;BME280;57470;50.034;15.256;2023-04-30T11:11:04;99849.31;;;17.62;54.98
70103;BME280;57470;50.034;15.256;2023-04-30T11:13:47;99853.69;;;17.73;55.04
70103;BME280;57470;50.034;15.256;2023-04-30T11:16:28;99851.94;;;17.33;55.57
70103;BME280;57470;50.034;15.256;2023-04-30T11:19:05;99847.78;;;17.19;56.23
70103;BME280;57470;50.034;15.256;2023-04-30T11:21:31;99843.09;;;17.71;56.72
70103;BME280;57470;50.034;15.256;2023-04-30T11:24:03;99845.22;;;17.87;57.61
70103;BME280;57470;50.034;15.256;2023-04-30T11:26:28;99843.78;;;17.92;56.46
70103;BME280;57470;50.034;15.256;2023-04-30T11:28:54;99858.66;;;18.06;55.27
70103;BME280;57470;50.034;15.256;2023-04-30T11:31:20;99855.88;;;17.29;54.34
70103;BME280;57470;50.034;15.256;2023-04-30T11:33:47;99840.88;;;17.17;54.81
70103;BME280;57470;50.034;15.256;2023-04-30T11:36:13;99845.44;;;17.55;56.03
70103;BME280;57470;50.034;15.256;2023-04-30T11:38:40;99840.66;;;17.58;55.48
70103;BME280;57470;50.034;15.256;2023-04-30T11:41:06;99834.72;;;17.74;53.79
70103;BME280;57470;50.034;15.256;2023-04-30T11:43:33;99844.09;;;17.80;52.93
70103;BME280;57470;50.034;15.256;2023-04-30T11:46:07;99850.03;;;17.83;53.46
70103;BME280;57470;50.034;15.256;2023-04-30T11:48:37;99840.69;;;17.87;52.55
70103;BME280;57470;50.034;15.256;2023-04-30T11:53:39;99834.03;;;17.63;50.23
70103;BME280;57470;50.034;15.256;2023-04-30T11:56:05;99839.69;;;17.88;51.76
70103;BME280;57470;50.034;15.256;2023-04-30T11:58:35;99842.94;;;17.82;52.27
70103;BME280;57470;50.034;15.256;2023-04-30T12:01:04;99834.94;;;18.29;53.47
70103;BME280;57470;50.034;15.256;2023-04-30T12:03:29;99842.88;;;18.30;53.76
70103;BME280;57470;50.034;15.256;2023-04-30T12:05:55;99839.50;;;18.09;50.44
70103;BME280;57470;50.034;15.256;2023-04-30T12:08:20;99835.50;;;18.79;50.41
70103;BME280;57470;50.034;15.256;2023-04-30T12:10:46;99845.03;;;18.17;48.95
70103;BME280;57470;50.034;15.256;2023-04-30T12:13:14;99837.81;;;17.60;50.62
70103;BME280;57470;50.034;15.256;2023-04-30T12:15:41;99844.03;;;18.18;51.55
70103;BME280;57470;50.034;15.256;2023-04-30T12:18:11;99845.41;;;18.51;50.46
70103;BME280;57470;50.034;15.256;2023-04-30T12:20:40;99837.16;;;18.62;49.63
70103;BME280;57470;50.034;15.256;2023-04-30T12:23:07;99842.00;;;18.59;50.68
70103;BME280;57470;50.034;15.256;2023-04-30T12:25:39;99843.97;;;18.57;50.60
70103;BME280;57470;50.034;15.256;2023-04-30T12:28:05;99838.84;;;17.97;50.38
70103;BME280;57470;50.034;15.256;2023-04-30T12:30:30;99833.38;;;18.26;48.53
70103;BME280;57470;50.034;15.256;2023-04-30T12:32:57;99844.88;;;18.28;48.39
70103;BME280;57470;50.034;15.256;2023-04-30T12:35:23;99840.00;;;18.61;49.67
70103;BME280;57470;50.034;15.256;2023-04-30T12:37:50;99831.78;;;19.17;49.69
70103;BME280;57470;50.034;15.256;2023-04-30T12:40:17;99834.56;;;19.53;49.70
70103;BME280;57470;50.034;15.256;2023-04-30T12:42:44;99838.94;;;18.71;47.25
70103;BME280;57470;50.034;15.256;2023-04-30T12:45:11;99834.84;;;18.77;47.69
70103;BME280;57470;50.034;15.256;2023-04-30T12:47:38;99834.53;;;19.07;47.87
70103;BME280;57470;50.034;15.256;2023-04-30T12:50:13;99828.41;;;19.33;46.47
70103;BME280;57470;50.034;15.256;2023-04-30T12:52:40;99825.34;;;19.45;45.35
70103;BME280;57470;50.034;15.256;2023-04-30T12:55:18;99826.31;;;19.72;45.21
70103;BME280;57470;50.034;15.256;2023-04-30T12:58:11;99823.69;;;18.90;45.93
70103;BME280;57470;50.034;15.256;2023-04-30T13:00:50;99828.38;;;19.96;45.69
70103;BME280;57470;50.034;15.256;2023-04-30T13:03:19;99818.13;;;19.99;47.02
70103;BME280;57470;50.034;15.256;2023-04-30T13:05:50;99821.06;;;19.25;46.22
70103;BME280;57470;50.034;15.256;2023-04-30T13:08:16;99813.41;;;19.30;47.27
70103;BME280;57470;50.034;15.256;2023-04-30T13:10:42;99816.66;;;19.87;47.81
70103;BME280;57470;50.034;15.256;2023-04-30T13:13:08;99811.34;;;19.95;45.01
70103;BME280;57470;50.034;15.256;2023-04-30T13:15:34;99807.13;;;19.75;45.69
70103;BME280;57470;50.034;15.256;2023-04-30T13:17:59;99803.72;;;20.16;46.36